Time;durP1;ratioP1;P1;durP2;ratioP2;P2;SDS_P1;SDS_P2;PMS_P1;PMS_P2;Temp;Humidity;BMP_temperature;BMP_pressure;BME280_temperature;BME280_humidity;BME280_pressure;Samples;Min_cycle;Max_cycle;Signal;HPM_P1;HPM_P2
2023/10/10 00:00:27;;;;;;;6.13;3.78;;;;;;;-146.35;100.00;61140.38;5032520;28;20371;-45
2023/10/10 00:02:54;;;;;;;7.35;4.00;;;;;;;-146.35;100.00;61140.38;5030046;28;20145;-46
2023/10/10 00:05:33;;;;;;;6.68;3.83;;;;;;;-146.35;100.00;61140.38;5029766;28;20047;-46
2023/10/10 00:07:59;;;;;;;8.45;3.90;;;;;;;-146.35;100.00;61140.38;5046820;28;20186;-49
2023/10/10 00:10:27;;;;;;;6.10;3.78;;;;;;;-146.35;100.00;61140.38;5032494;28;20765;-46
2023/10/10 00:12:53;;;;;;;6.35;3.65;;;;;;;-146.35;100.00;61140.38;5062522;28;20037;-47
2023/10/10 00:15:22;;;;;;;6.93;3.70;;;;;;;-146.35;100.00;61140.38;5029605;28;20044;-48
2023/10/10 00:17:48;;;;;;;5.53;3.38;;;;;;;-146.35;100.00;61140.38;5032006;28;20171;-47
2023/10/10 00:20:22;;;;;;;5.38;3.60;;;;;;;-146.35;100.00;61140.38;5031969;28;20369;-45
2023/10/10 00:22:48;;;;;;;7.57;4.07;;;;;;;-146.35;100.00;61140.38;5027438;28;20449;-46
2023/10/10 00:25:24;;;;;;;6.47;3.67;;;;;;;-146.35;100.00;61140.38;5031545;28;20040;-45
2023/10/10 00:27:55;;;;;;;6.68;3.40;;;;;;;-146.35;100.00;61140.38;5031097;28;20067;-48
2023/10/10 00:30:22;;;;;;;7.43;3.75;;;;;;;-146.35;100.00;61140.38;5031724;28;20052;-46
2023/10/10 00:32:50;;;;;;;6.05;3.42;;;;;;;-146.35;100.00;61140.38;5045800;28;20403;-48
2023/10/10 00:35:17;;;;;;;7.78;3.92;;;;;;;-146.35;100.00;61140.38;5031262;28;20892;-46
2023/10/10 00:37:44;;;;;;;6.05;3.80;;;;;;;-146.35;100.00;61140.38;5031403;28;20052;-47
2023/10/10 00:40:14;;;;;;;6.97;4.03;;;;;;;-146.35;100.00;61140.38;5031775;28;20662;-47
2023/10/10 00:42:42;;;;;;;8.13;3.88;;;;;;;-146.35;100.00;61140.38;5025231;28;20392;-45
2023/10/10 00:45:10;;;;;;;5.90;3.67;;;;;;;-146.35;100.00;61140.38;5027415;28;20156;-47
2023/10/10 00:47:43;;;;;;;6.05;3.50;;;;;;;-146.35;100.00;61140.38;5029761;28;20065;-47
2023/10/10 00:50:16;;;;;;;6.72;3.83;;;;;;;-146.35;100.00;61140.38;5030871;28;20119;-47
2023/10/10 00:52:53;;;;;;;6.50;3.70;;;;;;;-146.35;100.00;61140.38;5026056;28;20677;-46
2023/10/10 00:55:22;;;;;;;5.55;3.83;;;;;;;-146.35;100.00;61140.38;5019863;28;20575;-48
2023/10/10 00:57:52;;;;;;;7.03;4.40;;;;;;;-146.35;100.00;61140.38;5021156;28;20032;-45
2023/10/10 01:00:20;;;;;;;7.75;4.60;;;;;;;-146.35;100.00;61140.38;5023480;28;20054;-44
2023/10/10 01:02:46;;;;;;;5.68;3.95;;;;;;;-146.35;100.00;61140.38;5024464;28;20024;-45
2023/10/10 01:05:14;;;;;;;5.60;3.70;;;;;;;-146.35;100.00;61140.38;5024248;28;20028;-47
2023/10/10 01:07:43;;;;;;;6.88;4.05;;;;;;;-146.35;100.00;61140.38;5022891;28;21342;-44
2023/10/10 01:10:12;;;;;;;7.38;4.10;;;;;;;-146.35;100.00;61140.38;5023849;28;20066;-46
2023/10/10 01:12:39;;;;;;;5.95;3.58;;;;;;;-146.35;100.00;61140.38;5038447;28;20048;-46
2023/10/10 01:15:14;;;;;;;7.25;3.60;;;;;;;-146.35;100.00;61140.38;5023956;28;20166;-45
2023/10/10 01:17:40;;;;;;;5.82;3.92;;;;;;;-146.35;100.00;61140.38;5023701;28;20156;-48
2023/10/10 01:20:34;;;;;;;5.80;3.45;;;;;;;-146.35;100.00;61140.38;5022583;28;20481;-47
2023/10/10 01:23:00;;;;;;;9.38;4.15;;;;;;;-146.35;100.00;61140.38;5022906;28;20044;-46
2023/10/10 01:28:01;;;;;;;6.28;3.78;;;;;;;-146.35;100.00;61140.38;5025880;28;20067;-46
2023/10/10 01:33:16;;;;;;;6.63;3.70;;;;;;;-146.35;100.00;61140.38;5021189;28;20479;-47
2023/10/10 01:35:42;;;;;;;7.22;4.20;;;;;;;-146.35;100.00;61140.38;5054310;28;20227;-46
2023/10/10 01:38:38;;;;;;;6.47;3.90;;;;;;;-146.35;100.00;61140.38;5023117;28;20163;-49
2023/10/10 01:41:15;;;;;;;6.13;3.95;;;;;;;-146.35;100.00;61140.38;5037162;28;20674;-46
2023/10/10 01:43:46;;;;;;;5.88;3.67;;;;;;;-146.35;100.00;61140.38;5023774;28;20032;-46
2023/10/10 01:46:27;;;;;;;6.22;3.80;;;;;;;-146.35;100.00;61140.38;5023361;28;20040;-48
2023/10/10 01:48:53;;;;;;;;;;;;;;;-146.35;100.00;61140.38;5024068;28;20067;-49
2023/10/10 01:51:19;;;;;;;8.32;4.70;;;;;;;-146.35;100.00;61140.38;5022226;28;20438;-45
2023/10/10 01:53:44;;;;;;;5.43;3.85;;;;;;;-146.35;100.00;61140.38;5019007;28;20849;-47
2023/10/10 01:56:13;;;;;;;8.82;4.68;;;;;;;-146.35;100.00;61140.38;5022023;28;20864;-46
2023/10/10 01:58:39;;;;;;;5.60;3.60;;;;;;;-146.35;100.00;61140.38;5022940;28;20041;-46
2023/10/10 02:01:16;;;;;;;7.43;4.10;;;;;;;-146.35;100.00;61140.38;5023447;28;21503;-47
2023/10/10 02:03:42;;;;;;;7.45;4.40;;;;;;;-146.35;100.00;61140.38;5036132;28;20151;-47
2023/10/10 02:06:13;;;;;;;6.88;4.50;;;;;;;-146.35;100.00;61140.38;5055108;28;20598;-46
2023/10/10 02:08:38;;;;;;;5.90;4.10;;;;;;;-146.35;100.00;61140.38;5022660;28;20331;-49
2023/10/10 02:11:05;;;;;;;6.10;4.00;;;;;;;-146.35;100.00;61140.38;5026071;28;20681;-46
2023/10/10 02:13:33;;;;;;;6.03;3.90;;;;;;;-146.35;100.00;61140.38;5023961;28;20037;-46
2023/10/10 02:16:01;;;;;;;5.65;3.80;;;;;;;-146.35;100.00;61140.38;5024936;28;21521;-47
2023/10/10 02:18:59;;;;;;;8.02;4.32;;;;;;;-146.35;100.00;61140.38;5026344;28;20047;-45
2023/10/10 02:21:31;;;;;;;6.57;3.67;;;;;;;-146.35;100.00;61140.38;5027175;28;20045;-46
2023/10/10 02:24:12;;;;;;;5.63;3.63;;;;;;;-146.35;100.00;61140.38;5024955;28;20637;-48
2023/10/10 02:26:38;;;;;;;6.60;3.83;;;;;;;-146.35;100.00;61140.38;5026660;28;20032;-46
2023/10/10 02:29:34;;;;;;;6.80;3.80;;;;;;;-146.35;100.00;61140.38;5027083;28;20048;-45
2023/10/10 02:32:18;;;;;;;5.43;3.90;;;;;;;-146.35;100.00;61140.38;5026013;28;20405;-44
2023/10/10 02:34:42;;;;;;;7.00;4.30;;;;;;;-146.35;100.00;61140.38;5025236;28;20032;-44
2023/10/10 02:39:57;;;;;;;9.07;4.70;;;;;;;-146.35;100.00;61140.38;5027246;28;21389;-47
2023/10/10 02:42:23;;;;;;;5.65;3.85;;;;;;;-146.35;100.00;61140.38;5033210;28;20102;-47
2023/10/10 02:44:57;;;;;;;6.55;4.25;;;;;;;-146.35;100.00;61140.38;5064858;28;20487;-48
2023/10/10 02:47:32;;;;;;;7.07;4.20;;;;;;;-146.35;100.00;61140.38;5020086;28;21029;-49
2023/10/10 02:50:12;;;;;;;6.72;4.10;;;;;;;-146.35;100.00;61140.38;5027923;28;20071;-50
2023/10/10 02:52:45;;;;;;;5.93;3.80;;;;;;;-146.35;100.00;61140.38;5032878;28;20102;-47
2023/10/10 02:55:16;;;;;;;6.97;3.90;;;;;;;-146.35;100.00;61140.38;5032343;28;20125;-48
2023/10/10 02:57:41;;;;;;;8.15;4.38;;;;;;;-146.35;100.00;61140.38;5032090;28;20762;-47
2023/10/10 03:00:27;;;;;;;7.95;4.60;;;;;;;-146.35;100.00;61140.38;5032425;28;20086;-45
2023/10/10 03:02:53;;;;;;;6.35;4.47;;;;;;;-146.35;100.00;61140.38;5032490;28;20500;-45
2023/10/10 03:05:43;;;;;;;7.35;4.30;;;;;;;-146.35;100.00;61140.38;5031701;28;20044;-46
2023/10/10 03:10:54;;;;;;;5.15;3.70;;;;;;;-146.35;100.00;61140.38;5032452;28;20174;-48
2023/10/10 03:18:54;;;;;;;6.15;4.20;;;;;;;-146.35;100.00;61140.38;5031929;28;20044;-48
2023/10/10 03:21:25;;;;;;;8.80;4.80;;;;;;;-146.35;100.00;61140.38;5031941;28;20044;-45
2023/10/10 03:24:06;;;;;;;6.95;4.75;;;;;;;-146.35;100.00;61140.38;5063229;28;20117;-45
2023/10/10 03:34:55;;;;;;;6.25;3.95;;;;;;;-146.35;100.00;61140.38;5032713;28;20134;-48
2023/10/10 03:40:09;;;;;;;8.55;5.18;;;;;;;-146.35;100.00;61140.38;5031144;28;20064;-44
2023/10/10 05:24:21;;;;;;;7.10;4.25;;;;;;;-146.35;100.00;61140.38;5023905;28;20453;-44
2023/10/10 05:26:47;;;;;;;6.72;3.97;;;;;;;-146.35;100.00;61140.38;5023726;28;20114;-46
2023/10/10 05:29:24;;;;;;;5.60;4.10;;;;;;;-146.35;100.00;61140.38;5023443;28;20045;-44
2023/10/10 05:31:51;;;;;;;6.57;4.03;;;;;;;-146.35;100.00;61140.38;5021631;28;20126;-45
2023/10/10 05:34:18;;;;;;;5.65;3.80;;;;;;;-146.35;100.00;61140.38;5023984;28;20183;-46
2023/10/10 05:36:46;;;;;;;6.70;4.35;;;;;;;-146.35;100.00;61140.38;5055391;28;20071;-44
2023/10/10 05:39:17;;;;;;;6.93;3.85;;;;;;;-146.35;100.00;61140.38;5023746;28;20043;-46
2023/10/10 05:41:44;;;;;;;8.68;4.60;;;;;;;-146.35;100.00;61140.38;5034984;28;20025;-46
2023/10/10 05:44:10;;;;;;;5.93;4.00;;;;;;;-146.35;100.00;61140.38;5022556;28;20712;-45
2023/10/10 05:46:36;;;;;;;7.70;4.30;;;;;;;-146.35;100.00;61140.38;5023762;28;20120;-46
2023/10/10 05:49:02;;;;;;;6.18;3.85;;;;;;;-146.35;100.00;61140.38;5022773;28;20029;-46
2023/10/10 05:51:29;;;;;;;6.60;4.35;;;;;;;-146.35;100.00;61140.38;5038207;28;20101;-46
2023/10/10 05:53:55;;;;;;;8.23;4.20;;;;;;;-146.35;100.00;61140.38;5022368;28;20098;-46
2023/10/10 05:56:20;;;;;;;5.20;3.55;;;;;;;-146.35;100.00;61140.38;5023493;28;20419;-46
2023/10/10 05:58:47;;;;;;;6.20;3.92;;;;;;;-146.35;100.00;61140.38;5021306;28;20075;-48
2023/10/10 06:01:14;;;;;;;6.55;3.65;;;;;;;-146.35;100.00;61140.38;5023181;28;20894;-45
2023/10/10 06:03:44;;;;;;;8.73;4.00;;;;;;;-146.35;100.00;61140.38;5023225;28;20207;-45
2023/10/10 06:06:13;;;;;;;6.13;3.77;;;;;;;-146.35;100.00;61140.38;5023526;28;20025;-46
2023/10/10 06:08:42;;;;;;;7.90;4.38;;;;;;;-146.35;100.00;61140.38;5022874;28;20037;-46
2023/10/10 06:11:14;;;;;;;7.82;4.20;;;;;;;-146.35;100.00;61140.38;5024078;28;22294;-45
2023/10/10 06:13:40;;;;;;;6.22;3.95;;;;;;;-146.35;100.00;61140.38;5022793;28;20679;-46
2023/10/10 06:16:12;;;;;;;9.38;4.18;;;;;;;-146.35;100.00;61140.38;5023303;28;21173;-44
2023/10/10 06:18:41;;;;;;;6.55;4.18;;;;;;;-146.35;100.00;61140.38;5022864;28;20298;-44
2023/10/10 06:21:07;;;;;;;6.25;3.97;;;;;;;-146.35;100.00;61140.38;5022982;28;20100;-43
2023/10/10 06:23:35;;;;;;;5.93;3.80;;;;;;;-146.35;100.00;61140.38;5022093;28;20037;-45
2023/10/10 06:26:01;;;;;;;7.40;4.22;;;;;;;-146.35;100.00;61140.38;5022951;28;20074;-44
2023/10/10 06:28:26;;;;;;;6.57;3.70;;;;;;;-146.35;100.00;61140.38;5022035;28;20037;-44
2023/10/10 06:30:55;;;;;;;6.25;3.78;;;;;;;-146.35;100.00;61140.38;5022374;28;20067;-45
2023/10/10 06:33:27;;;;;;;6.13;3.92;;;;;;;-146.35;100.00;61140.38;5023418;28;20301;-46
2023/10/10 06:36:47;;;;;;;6.53;3.97;;;;;;;-146.35;100.00;61140.38;5021225;28;20040;-46
2023/10/10 06:41:35;;;;;;;5.88;3.70;;;;;;;-146.35;100.00;61140.38;5023543;28;20142;-45
2023/10/10 06:44:01;;;;;;;6.47;4.10;;;;;;;-146.35;100.00;61140.38;5023016;28;20770;-47
2023/10/10 06:46:32;;;;;;;5.80;3.67;;;;;;;-146.35;100.00;61140.38;5022482;28;20163;-47
2023/10/10 06:49:04;;;;;;;7.73;4.10;;;;;;;-146.35;100.00;61140.38;5022322;28;20032;-46
2023/10/10 06:51:35;;;;;;;7.22;4.22;;;;;;;-146.35;100.00;61140.38;5021717;28;20478;-50
2023/10/10 06:54:08;;;;;;;7.45;4.53;;;;;;;-146.35;100.00;61140.38;5023445;28;20041;-50
2023/10/10 06:56:53;;;;;;;7.20;4.05;;;;;;;-146.35;100.00;61140.38;5037724;28;20556;-48
2023/10/10 06:59:20;;;;;;;6.20;4.05;;;;;;;-146.35;100.00;61140.38;5025951;28;20128;-43
2023/10/10 07:01:46;;;;;;;6.28;3.67;;;;;;;-146.35;100.00;61140.38;5024089;28;20029;-44
2023/10/10 07:04:13;;;;;;;6.93;4.50;;;;;;;-146.35;100.00;61140.38;5026933;28;20432;-43
2023/10/10 07:06:45;;;;;;;6.80;4.10;;;;;;;-146.35;100.00;61140.38;5024262;28;20507;-45
2023/10/10 07:12:10;;;;;;;6.07;3.80;;;;;;;-146.35;100.00;61140.38;5024969;28;20036;-45
2023/10/10 07:14:46;;;;;;;6.13;4.00;;;;;;;-146.35;100.00;61140.38;5026487;28;20044;-45
2023/10/10 07:17:15;;;;;;;6.07;4.30;;;;;;;-146.35;100.00;61140.38;5025974;28;20025;-45
2023/10/10 07:22:27;;;;;;;6.55;4.00;;;;;;;-146.35;100.00;61140.38;5026753;28;20054;-46
2023/10/10 07:25:06;;;;;;;7.10;4.40;;;;;;;-146.35;100.00;61140.38;5041262;28;20036;-45
2023/10/10 07:27:32;;;;;;;8.95;5.10;;;;;;;-146.35;100.00;61140.38;5040490;28;20496;-46
2023/10/10 07:29:57;;;;;;;7.25;4.60;;;;;;;-146.35;100.00;61140.38;5025147;28;20062;-45
2023/10/10 07:32:29;;;;;;;6.97;4.45;;;;;;;-146.35;100.00;61140.38;5025576;28;20530;-46
2023/10/10 07:34:55;;;;;;;6.43;4.45;;;;;;;-146.35;100.00;61140.38;5026084;28;20037;-47
2023/10/10 07:37:27;;;;;;;6.88;4.60;;;;;;;-146.35;100.00;61140.38;5025281;28;20451;-45
2023/10/10 07:39:57;;;;;;;6.22;4.40;;;;;;;-146.35;100.00;61140.38;5026440;28;20951;-47
2023/10/10 07:42:31;;;;;;;6.13;4.03;;;;;;;-146.35;100.00;61140.38;5025099;28;20690;-46
2023/10/10 07:45:03;;;;;;;8.68;5.47;;;;;;;-146.35;100.00;61140.38;5055451;28;20047;-45
2023/10/10 07:47:32;;;;;;;7.95;5.50;;;;;;;-146.35;100.00;61140.38;5025106;28;20118;-44
2023/10/10 07:50:08;;;;;;;8.15;5.05;;;;;;;-146.35;100.00;61140.38;5021874;28;20548;-45
2023/10/10 07:52:35;;;;;;;7.13;4.35;;;;;;;-146.35;100.00;61140.38;5044912;28;20033;-46
2023/10/10 07:55:04;;;;;;;8.05;4.20;;;;;;;-146.35;100.00;61140.38;5025197;28;20497;-43
2023/10/10 07:57:55;;;;;;;8.25;4.30;;;;;;;-146.35;100.00;61140.38;5056150;28;21396;-47
2023/10/10 08:00:17;;;;;;;6.97;4.40;;;;;;;-146.35;100.00;61140.38;5024562;28;21554;-46
2023/10/10 08:02:49;;;;;;;8.40;5.10;;;;;;;-146.35;100.00;61140.38;5025393;28;20180;-46
2023/10/10 08:05:19;;;;;;;9.23;5.72;;;;;;;-146.35;100.00;61140.38;5023049;28;20127;-46
2023/10/10 08:07:45;;;;;;;7.57;4.35;;;;;;;-146.35;100.00;61140.38;5055583;28;20051;-46
2023/10/10 08:10:29;;;;;;;7.85;4.78;;;;;;;-146.35;100.00;61140.38;5030140;28;20037;-46
2023/10/10 08:13:00;;;;;;;7.85;4.40;;;;;;;-146.35;100.00;61140.38;5024901;28;20047;-44
2023/10/10 08:15:26;;;;;;;7.13;4.75;;;;;;;-146.35;100.00;61140.38;5024246;28;20046;-46
2023/10/10 08:17:54;;;;;;;8.85;5.35;;;;;;;-146.35;100.00;61140.38;5024818;28;20785;-46
2023/10/10 08:20:34;;;;;;;7.50;4.82;;;;;;;-146.35;100.00;61140.38;5024550;28;20044;-47
2023/10/10 08:23:01;;;;;;;7.57;4.85;;;;;;;-146.35;100.00;61140.38;5023574;28;20278;-45
2023/10/10 08:25:28;;;;;;;10.50;5.40;;;;;;;-146.35;100.00;61140.38;5024257;28;20040;-45
2023/10/10 08:27:55;;;;;;;8.23;5.47;;;;;;;-146.35;100.00;61140.38;5020517;28;20032;-46
2023/10/10 08:30:25;;;;;;;9.60;5.82;;;;;;;-146.35;100.00;61140.38;5023531;28;20143;-47
2023/10/10 08:32:53;;;;;;;8.80;5.47;;;;;;;-146.35;100.00;61140.38;5019987;28;20549;-51
2023/10/10 08:35:19;;;;;;;8.93;5.63;;;;;;;-146.35;100.00;61140.38;5024953;28;20969;-51
2023/10/10 08:37:44;;;;;;;9.32;5.97;;;;;;;-146.35;100.00;61140.38;5024125;28;20209;-47
2023/10/10 08:40:19;;;;;;;8.48;5.72;;;;;;;-146.35;100.00;61140.38;5023973;28;20083;-47
2023/10/10 08:42:46;;;;;;;11.90;7.80;;;;;;;-146.35;100.00;61140.38;5024137;28;20486;-47
2023/10/10 08:45:25;;;;;;;9.23;6.18;;;;;;;-146.35;100.00;61140.38;5024127;28;20132;-47
2023/10/10 08:48:01;;;;;;;11.38;6.80;;;;;;;-146.35;100.00;61140.38;5023946;28;20032;-45
2023/10/10 08:50:32;;;;;;;10.48;6.55;;;;;;;-146.35;100.00;61140.38;5023686;28;20511;-47
2023/10/10 08:52:59;;;;;;;11.48;7.10;;;;;;;-146.35;100.00;61140.38;5023221;28;20561;-47
2023/10/10 08:55:28;;;;;;;10.20;6.32;;;;;;;-146.35;100.00;61140.38;5023802;28;20412;-46
2023/10/10 08:57:57;;;;;;;11.75;6.20;;;;;;;-146.35;100.00;61140.38;5023739;28;20456;-49
2023/10/10 09:00:26;;;;;;;10.75;7.18;;;;;;;-146.35;100.00;61140.38;5022963;28;20855;-45
2023/10/10 09:02:53;;;;;;;10.40;6.82;;;;;;;-146.35;100.00;61140.38;5023104;28;20076;-46
2023/10/10 09:05:19;;;;;;;10.38;6.50;;;;;;;-146.35;100.00;61140.38;5023382;28;20818;-44
2023/10/10 09:07:46;;;;;;;13.05;7.13;;;;;;;-146.35;100.00;61140.38;5024132;28;20036;-46
2023/10/10 09:10:14;;;;;;;11.25;7.03;;;;;;;-146.35;100.00;61140.38;5024345;28;20599;-48
2023/10/10 09:12:55;;;;;;;11.70;6.60;;;;;;;-146.35;100.00;61140.38;5023746;28;20028;-46
2023/10/10 09:15:21;;;;;;;9.93;5.90;;;;;;;-146.35;100.00;61140.38;5023398;28;20041;-46
2023/10/10 09:17:48;;;;;;;13.75;9.02;;;;;;;-146.35;100.00;61140.38;5024440;28;20039;-45
2023/10/10 09:20:30;;;;;;;11.35;6.65;;;;;;;-146.35;100.00;61140.38;5053165;28;20048;-47
2023/10/10 09:23:11;;;;;;;10.07;5.63;;;;;;;-146.35;100.00;61140.38;5022245;28;20449;-46
2023/10/10 09:25:57;;;;;;;;;;;;;;;-146.35;100.00;61140.38;5024143;28;20198;-46
2023/10/10 09:28:32;;;;;;;9.45;5.82;;;;;;;-146.35;100.00;61140.38;5028756;28;19924;-47
2023/10/10 09:31:03;;;;;;;9.32;5.78;;;;;;;-146.35;100.00;61140.38;5028834;28;20052;-47
2023/10/10 09:33:33;;;;;;;8.05;4.78;;;;;;;-146.35;100.00;61140.38;5032395;28;20535;-45
2023/10/10 09:36:09;;;;;;;11.52;6.72;;;;;;;-146.35;100.00;61140.38;5028249;28;20525;-49
2023/10/10 09:38:36;;;;;;;10.80;5.70;;;;;;;-146.35;100.00;61140.38;5025085;28;20056;-41
2023/10/10 09:41:14;;;;;;;26.13;6.13;;;;;;;-146.35;100.00;61140.38;5020570;28;20037;-44
2023/10/10 09:43:50;;;;;;;18.60;7.45;;;;;;;-146.35;100.00;61140.38;5024418;28;20041;-42
2023/10/10 09:46:25;;;;;;;15.07;7.68;;;;;;;-146.35;100.00;61140.38;5025485;28;20025;-42
2023/10/10 09:52:49;;;;;;;11.35;6.07;;;;;;;-146.35;100.00;61140.38;5024656;28;20540;-45
2023/10/10 09:54:18;;;;;;;16.92;6.90;;;;;;;-146.35;100.00;61140.38;5024722;28;20040;-46
2023/10/10 09:56:50;;;;;;;14.93;7.30;;;;;;;-146.35;100.00;61140.38;5026092;28;20054;-43
2023/10/10 09:59:19;;;;;;;12.02;6.50;;;;;;;-146.35;100.00;61140.38;5025490;28;20961;-43
2023/10/10 10:01:47;;;;;;;12.88;7.13;;;;;;;-146.35;100.00;61140.38;5024844;28;21425;-44
2023/10/10 10:04:24;;;;;;;11.80;6.35;;;;;;;-146.35;100.00;61140.38;5024185;28;20465;-46
2023/10/10 10:07:12;;;;;;;10.82;5.78;;;;;;;-146.35;100.00;61140.38;5024899;28;20043;-48
2023/10/10 10:09:56;;;;;;;12.50;6.15;;;;;;;-146.35;100.00;61140.38;5025619;28;20033;-46
2023/10/10 10:12:46;;;;;;;9.88;5.72;;;;;;;-146.35;100.00;61140.38;5025324;28;20803;-45
2023/10/10 10:15:49;;;;;;;12.02;5.63;;;;;;;-146.35;100.00;61140.38;5024999;28;20048;-44
2023/10/10 10:18:29;;;;;;;9.93;5.70;;;;;;;-146.35;100.00;61140.38;5024391;28;20600;-45
2023/10/10 10:23:37;;;;;;;12.75;5.82;;;;;;;-146.35;100.00;61140.38;5025064;28;20048;-43
2023/10/10 10:26:04;;;;;;;10.70;5.60;;;;;;;-146.35;100.00;61140.38;5025440;28;20669;-42
2023/10/10 10:28:56;;;;;;;18.33;5.90;;;;;;;-146.35;100.00;61140.38;5022663;28;20029;-41
2023/10/10 10:31:35;;;;;;;14.00;5.65;;;;;;;-146.35;100.00;61140.38;5024066;28;20067;-42
2023/10/10 10:34:31;;;;;;;10.75;5.50;;;;;;;-146.35;100.00;61140.38;5026003;28;20032;-40
2023/10/10 10:37:13;;;;;;;9.95;5.22;;;;;;;-146.35;100.00;61140.38;5026898;28;20040;-43
2023/10/10 10:39:46;;;;;;;9.23;5.55;;;;;;;-146.35;100.00;61140.38;5040595;28;20032;-41
2023/10/10 10:42:11;;;;;;;10.13;5.38;;;;;;;-146.35;100.00;61140.38;5026266;28;20155;-40
2023/10/10 10:45:02;;;;;;;9.77;5.18;;;;;;;-146.35;100.00;61140.38;5008363;28;20032;-42
2023/10/10 10:47:35;;;;;;;9.77;4.80;;;;;;;-146.35;100.00;61140.38;5026475;28;20075;-41
2023/10/10 10:50:17;;;;;;;8.90;4.80;;;;;;;-146.35;100.00;61140.38;5041925;28;20055;-43
2023/10/10 10:52:57;;;;;;;9.38;4.97;;;;;;;-146.35;100.00;61140.38;5025357;28;20547;-43
2023/10/10 10:55:27;;;;;;;10.55;5.13;;;;;;;-146.35;100.00;61140.38;5024956;28;20037;-43
2023/10/10 10:58:08;;;;;;;9.77;5.18;;;;;;;-146.35;100.00;61140.38;5026573;28;20037;-42
2023/10/10 11:03:44;;;;;;;12.05;5.95;;;;;;;-146.35;100.00;61140.38;5023962;28;20106;-42
2023/10/10 11:06:10;;;;;;;9.88;5.35;;;;;;;-146.35;100.00;61140.38;5022843;28;20082;-43
2023/10/10 11:11:23;;;;;;;10.13;5.47;;;;;;;-146.35;100.00;61140.38;5039808;28;20052;-43
2023/10/10 11:13:51;;;;;;;13.15;5.15;;;;;;;-146.35;100.00;61140.38;5025608;28;20031;-43
2023/10/10 11:16:18;;;;;;;9.93;4.68;;;;;;;-146.35;100.00;61140.38;5041364;28;20048;-43
2023/10/10 11:18:44;;;;;;;8.73;4.75;;;;;;;-146.35;100.00;61140.38;5026275;28;20397;-43
2023/10/10 11:21:11;;;;;;;10.80;4.80;;;;;;;-146.35;100.00;61140.38;5058840;28;20040;-42
2023/10/10 11:23:41;;;;;;;6.25;4.30;;;;;;;-146.35;100.00;61140.38;5025771;28;20166;-43
2023/10/10 11:26:08;;;;;;;7.70;4.78;;;;;;;-146.35;100.00;61140.38;5025145;28;20102;-42
2023/10/10 11:28:45;;;;;;;10.50;4.50;;;;;;;-146.35;100.00;61140.38;5025892;28;20040;-43
2023/10/10 11:31:12;;;;;;;9.48;4.50;;;;;;;-146.35;100.00;61140.38;5025564;28;20504;-42
2023/10/10 11:33:48;;;;;;;8.77;4.70;;;;;;;-146.35;100.00;61140.38;5025082;28;20037;-42
2023/10/10 11:36:37;;;;;;;8.00;4.40;;;;;;;-146.35;100.00;61140.38;5024421;28;20118;-43
2023/10/10 11:39:18;;;;;;;7.60;4.40;;;;;;;-146.35;100.00;61140.38;5027964;28;20061;-41
2023/10/10 11:41:53;;;;;;;7.68;4.57;;;;;;;-146.35;100.00;61140.38;5041711;28;20040;-42
2023/10/10 11:44:34;;;;;;;7.85;4.15;;;;;;;-146.35;100.00;61140.38;5070281;28;20040;-41
2023/10/10 11:47:07;;;;;;;7.57;4.20;;;;;;;-146.35;100.00;61140.38;5055536;28;20040;-43
2023/10/10 11:49:32;;;;;;;8.55;4.38;;;;;;;-146.35;100.00;61140.38;5024793;28;20040;-42
2023/10/10 11:51:59;;;;;;;6.53;4.20;;;;;;;-146.35;100.00;61140.38;5024632;28;20035;-44
2023/10/10 11:54:27;;;;;;;6.82;4.10;;;;;;;-146.35;100.00;61140.38;5020840;28;20659;-43
2023/10/10 11:56:53;;;;;;;8.05;4.20;;;;;;;-146.35;100.00;61140.38;5024858;28;20082;-41
2023/10/10 11:59:18;;;;;;;9.50;4.35;;;;;;;-146.35;100.00;61140.38;5024319;28;20289;-42
2023/10/10 12:01:51;;;;;;;7.38;4.07;;;;;;;-146.35;100.00;61140.38;5025694;28;20048;-42
2023/10/10 12:04:32;;;;;;;7.20;4.35;;;;;;;-146.35;100.00;61140.38;5024157;28;20107;-41
2023/10/10 12:07:03;;;;;;;7.18;4.22;;;;;;;-146.35;100.00;61140.38;5022739;28;20171;-45
2023/10/10 12:09:30;;;;;;;7.03;4.30;;;;;;;-146.35;100.00;61140.38;5024920;28;20033;-43
2023/10/10 12:11:59;;;;;;;6.63;4.30;;;;;;;-146.35;100.00;61140.38;5024366;28;20062;-44
2023/10/10 12:14:32;;;;;;;6.72;4.20;;;;;;;-146.35;100.00;61140.38;5025031;28;20036;-42
2023/10/10 12:17:05;;;;;;;7.78;4.22;;;;;;;-146.35;100.00;61140.38;5024132;28;20113;-43
2023/10/10 12:19:43;;;;;;;7.57;4.40;;;;;;;-146.35;100.00;61140.38;5023060;28;20032;-43
2023/10/10 12:22:10;;;;;;;6.60;4.10;;;;;;;-146.35;100.00;61140.38;5024645;28;21120;-44
2023/10/10 12:24:37;;;;;;;6.03;4.03;;;;;;;-146.35;100.00;61140.38;5023338;28;20033;-43
2023/10/10 12:27:07;;;;;;;7.88;3.75;;;;;;;-146.35;100.00;61140.38;5038360;28;20032;-42
2023/10/10 12:29:33;;;;;;;6.43;4.22;;;;;;;-146.35;100.00;61140.38;5024194;28;21310;-44
2023/10/10 12:32:00;;;;;;;7.05;4.10;;;;;;;-146.35;100.00;61140.38;5024870;28;20513;-41
2023/10/10 12:34:26;;;;;;;6.95;4.07;;;;;;;-146.35;100.00;61140.38;5023454;28;20037;-41
2023/10/10 12:36:59;;;;;;;6.22;4.03;;;;;;;-146.35;100.00;61140.38;5040277;28;20650;-43
2023/10/10 12:39:27;;;;;;;5.72;3.78;;;;;;;-146.35;100.00;61140.38;5023356;28;20436;-43
2023/10/10 12:41:54;;;;;;;7.85;3.97;;;;;;;-146.35;100.00;61140.38;5025362;28;20458;-42
2023/10/10 12:44:20;;;;;;;8.70;4.20;;;;;;;-146.35;100.00;61140.38;5038777;28;20462;-43
2023/10/10 12:46:45;;;;;;;6.30;4.00;;;;;;;-146.35;100.00;61140.38;5024919;28;20036;-42
2023/10/10 12:49:11;;;;;;;6.90;4.05;;;;;;;-146.35;100.00;61140.38;5023721;28;20484;-44
2023/10/10 12:51:38;;;;;;;6.40;3.72;;;;;;;-146.35;100.00;61140.38;5024570;28;20580;-42
2023/10/10 12:54:09;;;;;;;6.65;3.70;;;;;;;-146.35;100.00;61140.38;5023954;28;20033;-44
2023/10/10 12:56:48;;;;;;;;;;;;;;;-146.35;100.00;61140.38;5023973;28;20048;-42
2023/10/10 12:59:15;;;;;;;6.30;3.80;;;;;;;-146.35;100.00;61140.38;5022052;28;19966;-43
2023/10/10 13:01:41;;;;;;;8.88;4.07;;;;;;;-146.35;100.00;61140.38;5023523;28;20297;-43
2023/10/10 13:04:07;;;;;;;6.63;3.90;;;;;;;-146.35;100.00;61140.38;5023933;28;20032;-41
2023/10/10 13:06:35;;;;;;;7.28;3.83;;;;;;;-146.35;100.00;61140.38;5022164;28;20032;-47
2023/10/10 13:09:04;;;;;;;5.68;3.53;;;;;;;-146.35;100.00;61140.38;5021477;28;20493;-41
2023/10/10 13:11:32;;;;;;;6.45;3.90;;;;;;;-146.35;100.00;61140.38;5023292;28;20800;-43
2023/10/10 13:14:08;;;;;;;6.53;4.18;;;;;;;-146.35;100.00;61140.38;5055557;28;20126;-42
2023/10/10 13:19:06;;;;;;;6.72;3.80;;;;;;;-146.35;100.00;61140.38;5024593;28;20045;-43
2023/10/10 13:21:35;;;;;;;6.05;3.50;;;;;;;-146.35;100.00;61140.38;5022627;28;20489;-44
2023/10/10 13:24:00;;;;;;;5.97;3.42;;;;;;;-146.35;100.00;61140.38;5023900;28;20495;-43
2023/10/10 13:26:27;;;;;;;6.32;3.60;;;;;;;-146.35;100.00;61140.38;5022932;28;20040;-42
2023/10/10 13:28:53;;;;;;;7.13;3.80;;;;;;;-146.35;100.00;61140.38;5023456;28;20036;-44
2023/10/10 13:31:24;;;;;;;7.90;3.97;;;;;;;-146.35;100.00;61140.38;5022738;28;20052;-42
2023/10/10 13:33:51;;;;;;;6.93;3.60;;;;;;;-146.35;100.00;61140.38;5024391;28;20320;-42
2023/10/10 13:36:17;;;;;;;6.57;3.50;;;;;;;-146.35;100.00;61140.38;5023052;28;20044;-43
2023/10/10 13:38:47;;;;;;;7.00;3.78;;;;;;;-146.35;100.00;61140.38;5023700;28;20033;-44
2023/10/10 13:41:23;;;;;;;6.82;3.70;;;;;;;-146.35;100.00;61140.38;5023069;28;20141;-43
2023/10/10 13:43:51;;;;;;;6.95;4.10;;;;;;;-146.35;100.00;61140.38;5023550;28;20039;-43
2023/10/10 13:46:18;;;;;;;6.30;3.60;;;;;;;-146.35;100.00;61140.38;5024367;28;20055;-41
2023/10/10 13:48:47;;;;;;;6.55;4.00;;;;;;;-146.35;100.00;61140.38;5023230;28;20328;-43
2023/10/10 13:51:14;;;;;;;6.60;3.88;;;;;;;-146.35;100.00;61140.38;5022144;28;20051;-42
2023/10/10 13:53:40;;;;;;;6.38;3.88;;;;;;;-146.35;100.00;61140.38;5023364;28;20384;-45
2023/10/10 13:56:07;;;;;;;9.20;3.83;;;;;;;-146.35;100.00;61140.38;5023468;28;21373;-47
2023/10/10 13:58:34;;;;;;;7.18;3.85;;;;;;;-146.35;100.00;61140.38;5022769;28;20467;-44